createdAt,value
2023-05-06T00:00:08.214Z,56.13
2023-05-06T00:03:17.180Z,56.65
2023-05-06T00:06:19.732Z,56.52
2023-05-06T00:09:24.075Z,56.70
2023-05-06T00:12:26.415Z,56.67
2023-05-06T00:15:30.175Z,56.83
2023-05-06T00:18:34.318Z,56.64
2023-05-06T00:21:36.725Z,56.63
2023-05-06T00:24:39.194Z,56.38
2023-05-06T00:27:41.534Z,56.61
2023-05-06T00:30:43.970Z,56.61
2023-05-06T00:33:46.419Z,56.83
2023-05-06T00:36:48.837Z,56.97
2023-05-06T00:39:51.197Z,56.68
2023-05-06T00:42:53.482Z,56.94
2023-05-06T00:45:55.951Z,56.83
2023-05-06T00:48:58.468Z,56.71
2023-05-06T00:52:01.395Z,56.92
2023-05-06T00:55:03.872Z,56.70
2023-05-06T00:58:06.583Z,56.63
2023-05-06T01:01:08.904Z,57.02
2023-05-06T01:04:12.377Z,56.95
2023-05-06T01:07:24.904Z,56.75
2023-05-06T01:10:43.089Z,56.60
2023-05-06T01:14:17.930Z,56.63
2023-05-06T01:17:21.155Z,56.82
2023-05-06T01:20:23.889Z,56.85
2023-05-06T01:23:26.238Z,57.04
2023-05-06T01:26:28.722Z,57.05
2023-05-06T01:29:31.218Z,56.87
2023-05-06T01:33:03.981Z,56.95
2023-05-06T01:37:00.359Z,56.67
2023-05-06T01:40:04.065Z,56.80
2023-05-06T01:43:07.965Z,56.99
2023-05-06T01:46:14.043Z,56.85
2023-05-06T01:49:17.360Z,56.84
2023-05-06T01:52:21.984Z,57.21
2023-05-06T01:55:24.424Z,56.91
2023-05-06T01:58:26.886Z,57.05
2023-05-06T02:01:29.370Z,57.17
2023-05-06T02:04:32.375Z,56.84
2023-05-06T02:07:35.386Z,57.01
2023-05-06T02:10:37.872Z,57.20
2023-05-06T02:13:43.768Z,57.20
2023-05-06T02:16:46.731Z,57.02
2023-05-06T02:19:49.834Z,57.22
2023-05-06T02:22:52.267Z,57.06
2023-05-06T02:25:54.703Z,57.02
2023-05-06T02:28:57.116Z,57.15
2023-05-06T02:31:59.522Z,57.43
2023-05-06T02:35:02.110Z,57.33
2023-05-06T02:38:04.611Z,57.26
2023-05-06T02:41:06.958Z,57.50
2023-05-06T02:44:09.350Z,57.40
2023-05-06T02:47:11.884Z,57.41
2023-05-06T02:50:14.257Z,57.21
2023-05-06T02:53:16.700Z,57.26
2023-05-06T02:56:19.020Z,57.38
2023-05-06T02:59:22.189Z,57.15
2023-05-06T03:02:24.552Z,57.40
2023-05-06T03:05:27.263Z,57.50
2023-05-06T03:08:29.636Z,57.33
2023-05-06T03:11:32.820Z,57.37
2023-05-06T03:14:39.224Z,57.18
2023-05-06T03:17:41.632Z,57.47
2023-05-06T03:20:45.039Z,57.54
2023-05-06T03:23:47.352Z,57.59
2023-05-06T03:26:50.618Z,57.37
2023-05-06T03:29:53.409Z,57.21
2023-05-06T03:33:01.242Z,57.23
2023-05-06T03:36:06.966Z,57.25
2023-05-06T03:39:10.769Z,57.50
2023-05-06T03:42:14.979Z,57.17
2023-05-06T03:45:17.820Z,57.34
2023-05-06T03:48:21.857Z,57.52
2023-05-06T03:51:24.792Z,57.46
2023-05-06T03:54:27.784Z,57.56
2023-05-06T03:57:30.478Z,57.15
2023-05-06T04:00:33.128Z,57.29
2023-05-06T04:03:35.724Z,57.39
2023-05-06T04:06:38.267Z,57.14
2023-05-06T04:09:40.722Z,57.36
2023-05-06T04:12:44.182Z,57.11
2023-05-06T04:15:49.083Z,57.02
2023-05-06T04:18:57.666Z,57.12
2023-05-06T04:22:00.663Z,57.17
2023-05-06T04:25:03.190Z,57.12
2023-05-06T04:28:06.723Z,56.98
2023-05-06T04:31:10.865Z,57.00
2023-05-06T04:34:21.931Z,56.96
2023-05-06T04:37:24.600Z,56.97
2023-05-06T04:40:35.483Z,56.59
2023-05-06T04:43:38.744Z,56.89
2023-05-06T04:46:47.624Z,56.53
2023-05-06T04:49:51.297Z,56.46
2023-05-06T04:52:53.949Z,56.54
2023-05-06T04:55:56.828Z,56.60
2023-05-06T04:58:59.315Z,56.26
2023-05-06T05:02:02.565Z,56.52
2023-05-06T05:05:05.380Z,56.54
2023-05-06T05:08:09.554Z,56.55
2023-05-06T05:11:12.900Z,56.21
2023-05-06T05:14:16.027Z,56.30
2023-05-06T05:17:18.855Z,56.20
2023-05-06T05:20:24.041Z,56.21
2023-05-06T05:23:26.621Z,55.96
2023-05-06T05:26:28.999Z,56.19
2023-05-06T05:29:33.383Z,55.93
2023-05-06T05:32:39.077Z,55.69
2023-05-06T05:35:41.548Z,55.77
2023-05-06T05:38:43.978Z,55.07
2023-05-06T05:41:46.769Z,54.79
2023-05-06T05:44:50.031Z,54.89
2023-05-06T05:47:54.152Z,54.76
2023-05-06T05:50:57.985Z,54.46
2023-05-06T05:54:00.836Z,54.08
2023-05-06T05:57:03.973Z,53.63
2023-05-06T06:00:07.629Z,53.89
2023-05-06T06:03:19.437Z,53.81
2023-05-06T06:06:21.890Z,53.36
2023-05-06T06:09:25.037Z,53.04
2023-05-06T06:12:28.283Z,52.96
2023-05-06T06:15:31.702Z,52.49
2023-05-06T06:18:34.197Z,52.52
2023-05-06T06:21:36.909Z,51.99
2023-05-06T06:24:39.467Z,51.81
2023-05-06T06:27:41.825Z,51.60
2023-05-06T06:30:44.258Z,51.52
2023-05-06T06:33:47.191Z,51.33
2023-05-06T06:36:49.601Z,51.05
2023-05-06T06:39:51.916Z,51.28
2023-05-06T06:42:54.652Z,51.41
2023-05-06T06:46:16.081Z,51.28
2023-05-06T06:49:18.490Z,51.38
2023-05-06T06:52:20.895Z,51.24
2023-05-06T06:55:23.298Z,51.16
2023-05-06T06:58:25.671Z,50.75
2023-05-06T07:01:28.041Z,50.55
2023-05-06T07:04:30.877Z,50.43
2023-05-06T07:07:33.265Z,49.76
2023-05-06T07:10:36.518Z,49.85
2023-05-06T07:13:39.037Z,49.06
2023-05-06T07:16:42.100Z,48.11
2023-05-06T07:19:45.263Z,47.34
2023-05-06T07:22:47.651Z,46.98
2023-05-06T07:25:50.054Z,46.77
2023-05-06T07:28:52.573Z,46.42
2023-05-06T07:31:54.924Z,46.32
2023-05-06T07:34:57.251Z,46.06
2023-05-06T07:37:59.672Z,46.03
2023-05-06T07:41:02.125Z,45.93
2023-05-06T07:44:04.784Z,45.84
2023-05-06T07:47:07.399Z,46.15
2023-05-06T07:50:10.675Z,46.33
2023-05-06T07:53:13.976Z,46.63
2023-05-06T07:56:16.373Z,46.47
2023-05-06T07:59:18.928Z,46.53
2023-05-06T08:02:21.346Z,46.45
2023-05-06T08:05:23.674Z,46.63
2023-05-06T08:08:28.894Z,46.94
2023-05-06T08:11:31.499Z,47.04
2023-05-06T08:14:33.844Z,47.27
2023-05-06T08:17:36.323Z,47.44
2023-05-06T08:20:39.114Z,47.44
2023-05-06T08:23:41.448Z,47.63
2023-05-06T08:26:43.832Z,47.78
2023-05-06T08:29:46.199Z,47.86
2023-05-06T08:32:48.582Z,48.04
2023-05-06T08:35:51.042Z,48.14
2023-05-06T08:38:53.414Z,48.14
2023-05-06T08:41:56.531Z,48.18
2023-05-06T08:44:59.947Z,48.34
2023-05-06T08:48:02.611Z,48.38
2023-05-06T08:51:05.453Z,48.44
2023-05-06T08:54:08.075Z,48.40
2023-05-06T08:57:12.548Z,48.67
2023-05-06T09:00:15.819Z,48.61
2023-05-06T09:03:18.335Z,48.93
2023-05-06T09:06:21.287Z,48.78
2023-05-06T09:09:23.675Z,48.77
2023-05-06T09:12:26.455Z,48.88
2023-05-06T09:15:39.791Z,48.88
2023-05-06T09:18:42.563Z,49.04
2023-05-06T09:21:47.293Z,49.00
2023-05-06T09:24:56.927Z,49.14
2023-05-06T09:28:10.220Z,49.11
2023-05-06T09:31:14.890Z,49.06
2023-05-06T09:34:18.153Z,49.04
2023-05-06T09:37:21.140Z,49.08
2023-05-06T09:40:24.507Z,49.19
2023-05-06T09:43:26.908Z,49.16
2023-05-06T09:46:29.496Z,49.28
2023-05-06T09:49:32.352Z,49.31
2023-05-06T09:52:35.282Z,49.44
2023-05-06T09:55:37.973Z,49.50
2023-05-06T09:58:40.650Z,49.43
2023-05-06T10:01:43.098Z,49.59
2023-05-06T10:04:46.582Z,49.30
2023-05-06T10:07:49.938Z,49.36
2023-05-06T10:11:10.744Z,49.33
2023-05-06T10:14:13.130Z,49.12
2023-05-06T10:17:16.523Z,49.42
2023-05-06T10:20:19.589Z,49.71
2023-05-06T10:23:26.971Z,49.41
2023-05-06T10:26:31.076Z,49.74
2023-05-06T10:29:36.257Z,49.47
2023-05-06T10:32:42.187Z,49.67
2023-05-06T10:35:53.411Z,49.66
2023-05-06T10:38:57.527Z,49.63
2023-05-06T10:42:02.417Z,49.61
2023-05-06T10:45:06.011Z,49.65
2023-05-06T10:48:14.769Z,49.81
2023-05-06T10:51:17.175Z,49.64
2023-05-06T10:54:20.499Z,49.76
2023-05-06T10:57:26.938Z,49.70
2023-05-06T11:00:34.138Z,49.63
2023-05-06T11:03:36.567Z,49.79
2023-05-06T11:06:46.252Z,49.73
2023-05-06T11:09:56.385Z,49.74
2023-05-06T11:12:59.143Z,49.84
2023-05-06T11:16:03.998Z,49.95
2023-05-06T11:19:06.453Z,50.04
2023-05-06T11:22:08.904Z,49.99
2023-05-06T11:25:11.327Z,50.03
2023-05-06T11:28:14.926Z,50.05
2023-05-06T11:31:17.780Z,49.83
2023-05-06T11:34:26.218Z,50.10
2023-05-06T11:37:29.758Z,50.16
2023-05-06T11:40:32.386Z,50.09
2023-05-06T11:43:34.902Z,50.21
2023-05-06T11:46:37.416Z,50.37
2023-05-06T11:49:43.369Z,50.41
2023-05-06T11:52:45.737Z,50.54
2023-05-06T11:55:49.797Z,50.50
2023-05-06T11:58:52.312Z,50.63
2023-05-06T12:01:57.084Z,50.51
2023-05-06T12:05:02.998Z,50.64
2023-05-06T12:08:13.329Z,50.67
2023-05-06T12:11:22.621Z,50.80
2023-05-06T12:14:25.208Z,50.81
2023-05-06T12:17:27.543Z,50.60
2023-05-06T12:20:29.986Z,50.80
2023-05-06T12:23:32.463Z,50.93
2023-05-06T12:26:45.804Z,50.83
2023-05-06T12:29:54.363Z,50.71
2023-05-06T12:33:01.003Z,50.83
2023-05-06T12:36:07.466Z,50.76
2023-05-06T12:39:11.809Z,50.86
2023-05-06T12:42:20.494Z,50.97
2023-05-06T12:45:23.201Z,50.73
2023-05-06T12:48:25.578Z,50.90
2023-05-06T12:51:28.899Z,50.99
2023-05-06T12:54:31.651Z,50.95
2023-05-06T12:57:34.019Z,50.92
2023-05-06T13:00:36.365Z,51.09
2023-05-06T13:03:41.044Z,51.24
2023-05-06T13:06:43.607Z,51.18
2023-05-06T13:09:46.291Z,51.00
2023-05-06T13:12:48.810Z,51.19
2023-05-06T13:15:53.135Z,51.01
2023-05-06T13:18:55.613Z,51.05
2023-05-06T13:21:58.811Z,51.08
2023-05-06T13:25:01.676Z,51.15
2023-05-06T13:28:04.119Z,51.17
2023-05-06T13:31:06.807Z,51.24
2023-05-06T13:34:09.160Z,51.38
2023-05-06T13:37:11.556Z,51.31
2023-05-06T13:40:14.650Z,51.29
2023-05-06T13:43:17.584Z,51.04
2023-05-06T13:46:20.062Z,51.53
2023-05-06T13:49:22.510Z,51.49
2023-05-06T13:52:24.826Z,51.25
2023-05-06T13:55:27.184Z,51.21
2023-05-06T13:58:29.592Z,51.58
2023-05-06T14:01:31.975Z,51.28
2023-05-06T14:04:34.391Z,51.26
2023-05-06T14:07:38.412Z,51.45
2023-05-06T14:10:42.678Z,51.52
2023-05-06T14:13:44.984Z,51.33
2023-05-06T14:16:47.649Z,51.44
2023-05-06T14:19:50.016Z,51.54
2023-05-06T14:22:52.422Z,51.43
2023-05-06T14:25:54.790Z,51.57
2023-05-06T14:28:57.222Z,51.27
2023-05-06T14:31:59.696Z,51.42
2023-05-06T14:35:02.223Z,51.62
2023-05-06T14:38:04.679Z,51.51
2023-05-06T14:41:07.033Z,51.21
2023-05-06T14:44:09.410Z,51.33
2023-05-06T14:47:11.741Z,51.60
2023-05-06T14:50:14.077Z,51.55
2023-05-06T14:53:16.591Z,51.41
2023-05-06T14:56:18.947Z,51.44
2023-05-06T14:59:21.423Z,51.42
2023-05-06T15:02:23.849Z,51.61
2023-05-06T15:05:26.508Z,51.36
2023-05-06T15:08:28.895Z,51.56
2023-05-06T15:11:32.273Z,51.53
2023-05-06T15:14:34.654Z,51.62
2023-05-06T15:17:37.598Z,51.21
2023-05-06T15:20:40.082Z,51.49
2023-05-06T15:23:42.432Z,51.53
2023-05-06T15:26:44.952Z,51.45
2023-05-06T15:29:47.443Z,51.44
2023-05-06T15:32:49.863Z,51.72
2023-05-06T15:35:52.213Z,51.61
2023-05-06T15:39:00.358Z,51.50
2023-05-06T15:42:03.070Z,51.46
2023-05-06T15:45:06.416Z,51.36
2023-05-06T15:48:08.794Z,51.62
2023-05-06T15:51:11.258Z,51.66
2023-05-06T15:54:18.064Z,51.62
2023-05-06T15:57:20.485Z,51.74
2023-05-06T16:00:23.274Z,51.22
2023-05-06T16:03:25.823Z,51.49
2023-05-06T16:06:28.240Z,51.56
2023-05-06T16:09:30.655Z,51.48
2023-05-06T16:12:33.143Z,51.49
2023-05-06T16:15:35.742Z,51.86
2023-05-06T16:18:38.119Z,51.61
2023-05-06T16:21:40.601Z,51.88
2023-05-06T16:24:42.995Z,51.87
2023-05-06T16:27:45.312Z,51.96
2023-05-06T16:30:47.757Z,52.03
2023-05-06T16:33:50.939Z,51.86
2023-05-06T16:36:54.408Z,52.04
2023-05-06T16:39:56.804Z,52.06
2023-05-06T16:42:59.271Z,52.13
2023-05-06T16:46:01.609Z,52.01
2023-05-06T16:49:04.680Z,52.08
2023-05-06T16:52:07.020Z,51.98
2023-05-06T16:55:09.635Z,52.24
2023-05-06T16:58:12.046Z,52.03
2023-05-06T17:01:14.500Z,52.52
2023-05-06T17:04:17.019Z,52.50
2023-05-06T17:07:19.481Z,52.30
2023-05-06T17:10:22.168Z,52.40
2023-05-06T17:13:24.632Z,52.39
2023-05-06T17:16:27.093Z,52.42
2023-05-06T17:19:29.499Z,52.57
2023-05-06T17:22:32.152Z,52.62
2023-05-06T17:28:36.845Z,52.62
2023-05-06T17:31:39.261Z,52.64
2023-05-06T17:34:41.747Z,52.93
2023-05-06T17:37:44.068Z,52.93
2023-05-06T17:40:46.468Z,52.75
2023-05-06T17:43:48.841Z,52.74
2023-05-06T17:46:51.190Z,53.05
2023-05-06T17:49:53.914Z,53.10
2023-05-06T17:52:56.313Z,53.20
2023-05-06T17:55:58.661Z,53.07
2023-05-06T17:59:02.714Z,53.37
2023-05-06T18:02:08.508Z,53.00
2023-05-06T18:05:11.688Z,53.31
2023-05-06T18:08:14.392Z,53.41
2023-05-06T18:11:17.473Z,53.23
2023-05-06T18:14:19.895Z,53.28
2023-05-06T18:17:22.274Z,53.50
2023-05-06T18:20:24.718Z,53.50
2023-05-06T18:23:27.093Z,53.31
2023-05-06T18:26:43.984Z,53.34
2023-05-06T18:29:48.429Z,53.66
2023-05-06T18:32:51.776Z,53.37
2023-05-06T18:35:54.713Z,53.72
2023-05-06T18:38:57.151Z,53.58
2023-05-06T18:41:59.949Z,53.78
2023-05-06T18:45:04.641Z,53.55
2023-05-06T18:48:07.087Z,53.60
2023-05-06T18:51:17.114Z,53.57
2023-05-06T18:54:19.625Z,53.97
2023-05-06T18:57:22.600Z,53.82
2023-05-06T19:00:26.501Z,53.64
2023-05-06T19:03:29.457Z,53.65
2023-05-06T19:06:32.581Z,54.02
2023-05-06T19:09:37.222Z,53.74
2023-05-06T19:12:39.718Z,53.76
2023-05-06T19:15:42.204Z,53.85
2023-05-06T19:18:44.586Z,54.09
2023-05-06T19:21:46.902Z,53.92
2023-05-06T19:24:49.217Z,53.92
2023-05-06T19:27:52.730Z,53.97
2023-05-06T19:30:55.114Z,54.20
2023-05-06T19:33:57.559Z,53.90
2023-05-06T19:36:59.873Z,54.09
2023-05-06T19:40:03.934Z,54.26
2023-05-06T19:43:06.418Z,54.17
2023-05-06T19:46:09.405Z,54.45
2023-05-06T19:49:11.753Z,54.40
2023-05-06T19:52:14.152Z,54.07
2023-05-06T19:55:16.757Z,54.11
2023-05-06T19:58:19.466Z,54.18
2023-05-06T20:01:23.976Z,54.23
2023-05-06T20:04:26.495Z,54.21
2023-05-06T20:07:28.833Z,54.27
2023-05-06T20:10:31.192Z,54.12
2023-05-06T20:13:33.749Z,54.46
2023-05-06T20:16:36.320Z,54.42
2023-05-06T20:19:39.094Z,54.38
2023-05-06T20:22:41.597Z,54.26
2023-05-06T20:25:43.985Z,54.30
2023-05-06T20:28:46.422Z,54.59
2023-05-06T20:31:48.837Z,54.41
2023-05-06T20:34:51.430Z,54.38
2023-05-06T20:37:54.643Z,54.36
2023-05-06T20:40:58.874Z,54.35
2023-05-06T20:44:01.445Z,54.57
2023-05-06T20:47:03.899Z,54.56
2023-05-06T20:50:06.680Z,54.42
2023-05-06T20:53:09.059Z,54.59
2023-05-06T20:56:24.753Z,54.50
2023-05-06T20:59:29.500Z,54.68
2023-05-06T21:02:32.993Z,54.58
2023-05-06T21:05:36.730Z,54.61
2023-05-06T21:08:39.121Z,54.59
2023-05-06T21:11:41.447Z,54.56
2023-05-06T21:14:43.809Z,54.52
2023-05-06T21:17:46.434Z,54.71
2023-05-06T21:20:49.058Z,54.52
2023-05-06T21:23:51.712Z,54.58
2023-05-06T21:26:54.039Z,54.51
2023-05-06T21:29:56.811Z,54.72
2023-05-06T21:32:59.229Z,54.75
2023-05-06T21:36:01.622Z,54.78
2023-05-06T21:39:12.114Z,54.92
2023-05-06T21:42:14.552Z,54.65
2023-05-06T21:45:17.156Z,54.90
2023-05-06T21:48:19.511Z,54.70
2023-05-06T21:51:21.885Z,54.95
2023-05-06T21:54:25.112Z,54.92
2023-05-06T21:57:27.478Z,54.89
2023-05-06T22:00:30.211Z,54.92
2023-05-06T22:03:32.705Z,54.92
2023-05-06T22:06:35.190Z,55.07
2023-05-06T22:09:37.779Z,55.17
2023-05-06T22:12:40.166Z,54.90
2023-05-06T22:15:43.408Z,55.05
2023-05-06T22:18:45.892Z,55.16
2023-05-06T22:21:48.243Z,55.11
2023-05-06T22:24:50.776Z,55.24
2023-05-06T22:27:53.120Z,55.24
2023-05-06T22:30:55.562Z,55.16
2023-05-06T22:34:03.450Z,55.30
2023-05-06T22:37:09.824Z,55.17
2023-05-06T22:40:12.702Z,55.18
2023-05-06T22:43:15.045Z,55.26
2023-05-06T22:46:17.447Z,55.11
2023-05-06T22:49:20.218Z,55.38
2023-05-06T22:52:22.626Z,55.18
2023-05-06T22:55:24.953Z,55.39
2023-05-06T22:58:27.304Z,55.27
2023-05-06T23:01:33.057Z,55.35
2023-05-06T23:04:35.433Z,55.55
2023-05-06T23:07:38.716Z,55.40
2023-05-06T23:10:41.478Z,55.51
2023-05-06T23:13:43.819Z,55.55
2023-05-06T23:16:46.291Z,55.54
2023-05-06T23:19:48.622Z,55.39
2023-05-06T23:22:51.072Z,55.24
2023-05-06T23:25:53.426Z,55.55
2023-05-06T23:28:55.886Z,55.41
2023-05-06T23:31:58.220Z,55.59
2023-05-06T23:35:04.775Z,55.42
2023-05-06T23:38:07.212Z,55.40
2023-05-06T23:41:09.573Z,55.35
2023-05-06T23:44:11.983Z,55.30
2023-05-06T23:47:14.303Z,55.39
2023-05-06T23:50:16.649Z,55.52
2023-05-06T23:53:18.984Z,55.29
2023-05-06T23:56:21.903Z,55.48
2023-05-06T23:59:24.262Z,55.65
